createdAt,value
2023-05-09T00:00:16.846Z,18.50
2023-05-09T00:02:19.053Z,18.40
2023-05-09T00:04:21.251Z,18.50
2023-05-09T00:06:23.200Z,18.40
2023-05-09T00:08:25.572Z,18.40
2023-05-09T00:10:27.680Z,18.40
2023-05-09T00:12:29.851Z,18.40
2023-05-09T00:14:33.634Z,18.40
2023-05-09T00:16:36.826Z,18.40
2023-05-09T00:18:42.282Z,18.40
2023-05-09T00:20:44.394Z,18.30
2023-05-09T00:22:46.405Z,18.30
2023-05-09T00:24:48.746Z,18.30
2023-05-09T00:26:50.995Z,18.40
2023-05-09T00:28:53.025Z,18.40
2023-05-09T00:30:56.732Z,18.50
2023-05-09T00:32:58.876Z,18.40
2023-05-09T00:35:00.896Z,18.40
2023-05-09T00:37:03.175Z,18.40
2023-05-09T00:39:05.572Z,18.40
2023-05-09T00:41:07.542Z,18.30
2023-05-09T00:43:10.094Z,18.40
2023-05-09T00:45:12.521Z,18.40
2023-05-09T00:47:16.092Z,18.40
2023-05-09T00:49:18.059Z,18.40
2023-05-09T00:51:21.541Z,18.40
2023-05-09T00:53:25.349Z,18.40
2023-05-09T00:55:27.610Z,18.40
2023-05-09T00:57:29.615Z,18.30
2023-05-09T00:59:31.603Z,18.30
2023-05-09T01:01:33.707Z,18.30
2023-05-09T01:03:38.969Z,18.30
2023-05-09T01:05:46.846Z,18.30
2023-05-09T01:07:56.855Z,18.30
2023-05-09T01:10:04.928Z,18.30
2023-05-09T01:12:14.072Z,18.20
2023-05-09T01:14:29.896Z,18.20
2023-05-09T01:16:38.913Z,18.20
2023-05-09T01:18:47.088Z,18.10
2023-05-09T01:20:57.011Z,18.10
2023-05-09T01:23:22.973Z,18.00
2023-05-09T01:25:49.115Z,18.00
2023-05-09T01:27:58.053Z,18.00
2023-05-09T01:30:03.156Z,18.00
2023-05-09T01:32:09.721Z,18.00
2023-05-09T01:34:13.127Z,18.00
2023-05-09T01:36:17.991Z,17.90
2023-05-09T01:38:21.803Z,17.90
2023-05-09T01:40:25.844Z,17.90
2023-05-09T01:42:35.000Z,17.80
2023-05-09T01:44:41.116Z,17.80
2023-05-09T01:46:44.978Z,17.90
2023-05-09T01:48:48.206Z,17.90
2023-05-09T01:50:50.346Z,18.00
2023-05-09T01:52:56.307Z,18.00
2023-05-09T01:55:01.369Z,18.00
2023-05-09T01:57:03.996Z,17.90
2023-05-09T01:59:07.855Z,18.00
2023-05-09T02:01:10.537Z,18.00
2023-05-09T02:03:15.314Z,17.90
2023-05-09T02:05:18.316Z,17.90
2023-05-09T02:07:21.151Z,17.90
2023-05-09T02:09:23.589Z,17.80
2023-05-09T02:11:26.292Z,17.80
2023-05-09T02:13:28.374Z,17.80
2023-05-09T02:15:30.917Z,17.80
2023-05-09T02:17:32.971Z,17.70
2023-05-09T02:19:36.629Z,17.90
2023-05-09T02:21:38.845Z,17.80
2023-05-09T02:23:41.071Z,17.80
2023-05-09T02:25:44.076Z,17.80
2023-05-09T02:27:47.255Z,17.80
2023-05-09T02:29:54.488Z,17.80
2023-05-09T02:31:59.375Z,17.80
2023-05-09T02:34:02.430Z,17.80
2023-05-09T02:36:10.228Z,17.70
2023-05-09T02:38:13.173Z,17.70
2023-05-09T02:40:15.309Z,17.70
2023-05-09T02:42:21.580Z,17.70
2023-05-09T02:44:23.606Z,17.70
2023-05-09T02:46:26.229Z,17.60
2023-05-09T02:48:28.289Z,17.60
2023-05-09T02:50:30.607Z,17.60
2023-05-09T02:52:34.121Z,17.60
2023-05-09T02:54:36.092Z,17.60
2023-05-09T02:56:38.062Z,17.60
2023-05-09T02:58:40.023Z,17.50
2023-05-09T03:00:42.501Z,17.60
2023-05-09T03:02:44.975Z,17.50
2023-05-09T03:04:47.011Z,17.60
2023-05-09T03:06:49.519Z,17.50
2023-05-09T03:08:53.257Z,17.40
2023-05-09T03:10:55.518Z,17.30
2023-05-09T03:12:57.501Z,17.40
2023-05-09T03:14:59.493Z,17.30
2023-05-09T03:17:01.458Z,17.30
2023-05-09T03:19:03.911Z,17.30
2023-05-09T03:21:06.254Z,17.40
2023-05-09T03:23:08.302Z,17.40
2023-05-09T03:25:11.821Z,17.40
2023-05-09T03:27:13.801Z,17.40
2023-05-09T03:29:15.721Z,17.30
2023-05-09T03:31:17.883Z,17.30
2023-05-09T03:33:19.891Z,17.30
2023-05-09T03:35:22.074Z,17.30
2023-05-09T03:37:26.234Z,17.30
2023-05-09T03:39:28.853Z,17.20
2023-05-09T03:41:32.199Z,17.20
2023-05-09T03:43:34.182Z,17.00
2023-05-09T03:45:36.134Z,16.80
2023-05-09T03:47:38.125Z,16.80
2023-05-09T03:49:40.079Z,16.80
2023-05-09T03:51:42.348Z,16.80
2023-05-09T03:53:46.960Z,16.80
2023-05-09T03:55:48.985Z,16.70
2023-05-09T03:57:52.261Z,16.80
2023-05-09T03:59:54.286Z,16.70
2023-05-09T04:01:56.575Z,16.70
2023-05-09T04:03:58.908Z,16.80
2023-05-09T04:06:01.270Z,16.60
2023-05-09T04:08:03.529Z,16.50
2023-05-09T04:10:06.552Z,16.50
2023-05-09T04:12:09.066Z,16.50
2023-05-09T04:14:12.561Z,16.40
2023-05-09T04:16:14.720Z,16.40
2023-05-09T04:18:16.891Z,16.40
2023-05-09T04:20:18.922Z,16.40
2023-05-09T04:22:21.057Z,16.30
2023-05-09T04:24:23.090Z,16.30
2023-05-09T04:26:25.861Z,16.20
2023-05-09T04:28:27.883Z,16.20
2023-05-09T04:30:31.401Z,16.20
2023-05-09T04:32:33.586Z,16.10
2023-05-09T04:34:35.742Z,16.10
2023-05-09T04:36:37.637Z,16.00
2023-05-09T04:38:39.630Z,16.00
2023-05-09T04:40:41.590Z,15.90
2023-05-09T04:42:43.605Z,15.90
2023-05-09T04:44:45.921Z,15.80
2023-05-09T04:46:50.554Z,15.90
2023-05-09T04:48:52.554Z,15.90
2023-05-09T04:50:54.473Z,15.90
2023-05-09T04:52:56.459Z,15.70
2023-05-09T04:54:58.390Z,15.60
2023-05-09T04:57:09.983Z,15.70
2023-05-09T04:59:19.084Z,15.60
2023-05-09T05:01:21.289Z,15.50
2023-05-09T05:03:24.679Z,15.40
2023-05-09T05:05:26.989Z,15.50
2023-05-09T05:07:29.244Z,15.40
2023-05-09T05:09:31.527Z,15.30
2023-05-09T05:11:33.580Z,15.30
2023-05-09T05:13:35.575Z,15.40
2023-05-09T05:15:37.619Z,15.30
2023-05-09T05:17:39.716Z,15.30
2023-05-09T05:19:43.225Z,15.30
2023-05-09T05:21:45.232Z,15.20
2023-05-09T05:23:47.328Z,15.30
2023-05-09T05:25:49.321Z,15.30
2023-05-09T05:27:51.255Z,15.40
2023-05-09T05:29:53.284Z,15.40
2023-05-09T05:31:55.458Z,15.40
2023-05-09T05:33:57.863Z,15.30
2023-05-09T05:36:01.222Z,15.30
2023-05-09T05:38:03.202Z,15.30
2023-05-09T05:40:06.401Z,15.30
2023-05-09T05:42:08.486Z,15.30
2023-05-09T05:44:10.611Z,15.30
2023-05-09T05:46:12.638Z,15.20
2023-05-09T05:48:14.767Z,15.20
2023-05-09T05:50:16.734Z,15.10
2023-05-09T05:52:20.151Z,15.20
2023-05-09T05:54:22.109Z,15.20
2023-05-09T05:56:24.282Z,15.20
2023-05-09T05:58:26.794Z,15.10
2023-05-09T06:00:29.422Z,15.20
2023-05-09T06:02:31.560Z,15.20
2023-05-09T06:04:33.651Z,15.10
2023-05-09T06:06:35.761Z,15.10
2023-05-09T06:08:39.091Z,15.20
2023-05-09T06:10:41.760Z,15.20
2023-05-09T06:12:43.865Z,15.20
2023-05-09T06:14:45.905Z,15.10
2023-05-09T06:16:48.036Z,15.10
2023-05-09T06:18:50.249Z,15.00
2023-05-09T06:20:52.463Z,15.00
2023-05-09T06:22:54.538Z,15.00
2023-05-09T06:24:57.853Z,14.80
2023-05-09T06:26:59.968Z,14.90
2023-05-09T06:29:01.933Z,14.90
2023-05-09T06:31:04.101Z,14.90
2023-05-09T06:33:06.221Z,15.00
2023-05-09T06:35:08.831Z,14.90
2023-05-09T06:37:10.950Z,14.90
2023-05-09T06:39:12.979Z,14.90
2023-05-09T06:41:17.477Z,14.90
2023-05-09T06:43:19.405Z,14.90
2023-05-09T06:45:21.454Z,14.80
2023-05-09T06:47:23.537Z,14.80
2023-05-09T06:49:26.422Z,14.90
2023-05-09T06:51:28.731Z,14.80
2023-05-09T06:53:30.686Z,14.80
2023-05-09T06:55:32.709Z,14.90
2023-05-09T06:57:36.293Z,15.50
2023-05-09T06:59:38.715Z,16.00
2023-05-09T07:01:41.106Z,16.00
2023-05-09T07:03:43.337Z,16.00
2023-05-09T07:05:45.573Z,16.00
2023-05-09T07:07:47.803Z,16.20
2023-05-09T07:09:52.929Z,16.50
2023-05-09T07:11:57.427Z,16.60
2023-05-09T07:14:00.758Z,16.60
2023-05-09T07:16:03.045Z,16.00
2023-05-09T07:18:05.588Z,15.80
2023-05-09T07:20:08.601Z,15.50
2023-05-09T07:22:10.666Z,15.50
2023-05-09T07:24:12.697Z,15.30
2023-05-09T07:26:14.800Z,15.30
2023-05-09T07:28:16.813Z,15.30
2023-05-09T07:30:20.172Z,15.20
2023-05-09T07:32:22.216Z,15.20
2023-05-09T07:34:25.440Z,15.00
2023-05-09T07:36:27.509Z,15.00
2023-05-09T07:38:29.430Z,15.00
2023-05-09T07:40:31.769Z,14.90
2023-05-09T07:42:33.903Z,14.80
2023-05-09T07:44:35.839Z,14.90
2023-05-09T07:46:40.878Z,15.00
2023-05-09T07:48:42.844Z,15.00
2023-05-09T07:50:44.828Z,15.00
2023-05-09T07:52:46.792Z,15.00
2023-05-09T07:54:48.813Z,15.00
2023-05-09T07:56:50.778Z,15.10
2023-05-09T07:58:55.055Z,14.90
2023-05-09T08:00:57.620Z,15.00
2023-05-09T08:03:04.151Z,15.00
2023-05-09T08:05:07.932Z,15.00
2023-05-09T08:07:09.947Z,15.00
2023-05-09T08:09:12.316Z,15.00
2023-05-09T08:11:14.429Z,14.90
2023-05-09T08:13:16.466Z,14.90
2023-05-09T08:15:18.586Z,14.90
2023-05-09T08:17:20.716Z,15.00
2023-05-09T08:19:26.187Z,15.10
2023-05-09T08:21:28.403Z,15.00
2023-05-09T08:23:30.453Z,15.20
2023-05-09T08:25:32.649Z,15.20
2023-05-09T08:27:35.056Z,15.20
2023-05-09T08:29:37.098Z,15.20
2023-05-09T08:31:39.190Z,15.10
2023-05-09T08:33:42.060Z,15.20
2023-05-09T08:35:46.041Z,15.20
2023-05-09T08:37:48.348Z,15.10
2023-05-09T08:39:50.423Z,15.00
2023-05-09T08:41:53.983Z,15.20
2023-05-09T08:43:56.384Z,15.20
2023-05-09T08:46:00.962Z,15.20
2023-05-09T08:48:03.916Z,15.20
2023-05-09T08:50:07.452Z,15.30
2023-05-09T08:52:12.052Z,15.40
2023-05-09T08:54:15.402Z,15.30
2023-05-09T08:56:17.704Z,15.30
2023-05-09T08:58:20.324Z,15.30
2023-05-09T09:00:22.735Z,15.40
2023-05-09T09:02:25.240Z,15.30
2023-05-09T09:04:27.179Z,15.40
2023-05-09T09:06:32.109Z,15.40
2023-05-09T09:08:35.612Z,15.40
2023-05-09T09:10:47.181Z,15.30
2023-05-09T09:12:50.354Z,15.30
2023-05-09T09:14:55.860Z,15.30
2023-05-09T09:16:58.892Z,15.30
2023-05-09T09:19:01.053Z,15.30
2023-05-09T09:21:06.492Z,15.30
2023-05-09T09:23:12.660Z,15.30
2023-05-09T09:25:16.172Z,15.30
2023-05-09T09:27:19.322Z,15.30
2023-05-09T09:29:22.901Z,15.30
2023-05-09T09:31:27.506Z,15.30
2023-05-09T09:33:29.970Z,15.30
2023-05-09T09:35:39.086Z,15.30
2023-05-09T09:37:42.791Z,15.30
2023-05-09T09:39:54.606Z,15.20
2023-05-09T09:42:10.609Z,15.30
2023-05-09T09:44:14.581Z,15.40
2023-05-09T09:46:18.226Z,15.30
2023-05-09T09:48:24.497Z,15.40
2023-05-09T09:50:27.004Z,15.40
2023-05-09T09:52:28.933Z,15.40
2023-05-09T09:54:32.579Z,15.30
2023-05-09T09:56:45.524Z,15.20
2023-05-09T09:58:49.355Z,15.20
2023-05-09T10:01:06.379Z,15.30
2023-05-09T10:03:14.939Z,15.20
2023-05-09T10:05:24.863Z,15.20
2023-05-09T10:07:27.072Z,15.30
2023-05-09T10:09:29.224Z,15.30
2023-05-09T10:11:32.397Z,15.30
2023-05-09T10:13:36.324Z,15.30
2023-05-09T10:15:52.278Z,15.40
2023-05-09T10:17:58.126Z,15.40
2023-05-09T10:20:02.372Z,15.30
2023-05-09T10:22:08.072Z,15.40
2023-05-09T10:24:11.236Z,15.30
2023-05-09T10:26:18.583Z,15.30
2023-05-09T10:28:27.707Z,15.30
2023-05-09T10:30:35.673Z,15.40
2023-05-09T10:32:52.707Z,15.40
2023-05-09T10:34:58.571Z,15.40
2023-05-09T10:37:01.450Z,15.30
2023-05-09T10:39:03.593Z,15.40
2023-05-09T10:41:06.067Z,15.40
2023-05-09T10:43:08.257Z,15.50
2023-05-09T10:45:12.538Z,15.50
2023-05-09T10:47:15.612Z,15.50
2023-05-09T10:49:19.578Z,15.50
2023-05-09T10:51:22.313Z,15.60
2023-05-09T10:53:24.812Z,15.50
2023-05-09T10:55:36.571Z,15.50
2023-05-09T10:57:39.584Z,15.60
2023-05-09T10:59:43.117Z,15.90
2023-05-09T11:01:46.466Z,16.40
2023-05-09T11:03:55.693Z,16.70
2023-05-09T11:05:59.988Z,16.50
2023-05-09T11:08:26.781Z,16.40
2023-05-09T11:10:42.559Z,16.40
2023-05-09T11:12:58.554Z,16.40
2023-05-09T11:15:06.439Z,16.30
2023-05-09T11:17:09.769Z,16.30
2023-05-09T11:19:11.795Z,16.30
2023-05-09T11:21:15.394Z,16.30
2023-05-09T11:23:19.602Z,16.30
2023-05-09T11:25:28.346Z,16.20
2023-05-09T11:27:38.485Z,16.10
2023-05-09T11:29:44.849Z,16.10
2023-05-09T11:32:05.156Z,16.10
2023-05-09T11:34:09.543Z,16.10
2023-05-09T11:36:20.436Z,16.10
2023-05-09T11:38:23.168Z,16.20
2023-05-09T11:40:25.519Z,16.20
2023-05-09T11:42:28.984Z,16.30
2023-05-09T11:44:33.433Z,16.30
2023-05-09T11:46:35.816Z,16.30
2023-05-09T11:48:38.896Z,16.30
2023-05-09T11:50:41.588Z,16.30
2023-05-09T11:52:45.846Z,16.30
2023-05-09T11:54:48.551Z,16.30
2023-05-09T11:56:50.806Z,16.30
2023-05-09T11:58:52.785Z,16.30
2023-05-09T12:00:55.126Z,16.30
2023-05-09T12:02:57.286Z,16.40
2023-05-09T12:05:08.714Z,16.50
2023-05-09T12:07:13.090Z,16.60
2023-05-09T12:09:16.542Z,16.60
2023-05-09T12:11:18.578Z,16.60
2023-05-09T12:13:20.506Z,16.70
2023-05-09T12:15:22.772Z,16.80
2023-05-09T12:17:25.252Z,16.90
2023-05-09T12:19:28.364Z,17.00
2023-05-09T12:21:30.326Z,17.00
2023-05-09T12:23:35.399Z,17.00
2023-05-09T12:25:38.735Z,16.90
2023-05-09T12:27:41.883Z,17.00
2023-05-09T12:29:46.069Z,16.90
2023-05-09T12:31:48.898Z,17.00
2023-05-09T12:33:51.082Z,17.00
2023-05-09T12:36:05.804Z,17.00
2023-05-09T12:38:07.874Z,16.90
2023-05-09T12:40:15.809Z,16.90
2023-05-09T12:42:19.296Z,17.00
2023-05-09T12:44:23.048Z,17.00
2023-05-09T12:46:25.688Z,17.00
2023-05-09T12:48:28.805Z,17.10
2023-05-09T12:50:35.418Z,17.10
2023-05-09T12:52:54.089Z,17.20
2023-05-09T12:55:06.714Z,17.10
2023-05-09T12:57:23.137Z,17.10
2023-05-09T12:59:27.392Z,17.20
2023-05-09T13:01:30.125Z,17.10
2023-05-09T13:03:37.794Z,17.20
2023-05-09T13:05:39.884Z,17.20
2023-05-09T13:07:44.933Z,17.20
2023-05-09T13:10:00.957Z,17.30
2023-05-09T13:12:04.135Z,17.30
2023-05-09T13:14:08.156Z,17.20
2023-05-09T13:16:11.170Z,17.30
2023-05-09T13:18:14.325Z,17.40
2023-05-09T13:20:17.140Z,17.50
2023-05-09T13:22:19.393Z,17.70
2023-05-09T13:24:21.636Z,17.80
2023-05-09T13:26:23.884Z,18.00
2023-05-09T13:28:26.000Z,18.00
2023-05-09T13:30:29.620Z,18.00
2023-05-09T13:32:32.486Z,17.90
2023-05-09T13:34:34.548Z,17.80
2023-05-09T13:36:36.552Z,17.90
2023-05-09T13:38:40.544Z,17.80
2023-05-09T13:40:42.834Z,17.90
2023-05-09T13:42:45.069Z,17.80
2023-05-09T13:44:47.059Z,17.70
2023-05-09T13:46:50.744Z,17.70
2023-05-09T13:48:52.713Z,17.70
2023-05-09T13:50:55.937Z,17.60
2023-05-09T13:52:58.865Z,17.60
2023-05-09T13:55:00.938Z,17.60
2023-05-09T13:57:03.704Z,17.60
2023-05-09T13:59:06.443Z,17.80
2023-05-09T14:01:08.540Z,17.70
2023-05-09T14:03:11.904Z,17.70
2023-05-09T14:05:13.954Z,17.70
2023-05-09T14:07:16.809Z,17.70
2023-05-09T14:09:19.299Z,17.70
2023-05-09T14:11:21.663Z,17.70
2023-05-09T14:13:23.745Z,17.70
2023-05-09T14:15:25.981Z,17.70
2023-05-09T14:17:28.274Z,17.70
2023-05-09T14:19:31.600Z,17.80
2023-05-09T14:21:33.722Z,17.90
2023-05-09T14:23:35.772Z,18.00
2023-05-09T14:25:37.851Z,18.10
2023-05-09T14:27:39.881Z,18.10
2023-05-09T14:29:43.294Z,18.20
2023-05-09T14:31:45.438Z,18.20
2023-05-09T14:33:47.575Z,18.30
2023-05-09T14:35:51.118Z,18.20
2023-05-09T14:37:53.333Z,18.30
2023-05-09T14:39:55.425Z,18.40
2023-05-09T14:41:57.465Z,18.40
2023-05-09T14:43:59.493Z,18.40
2023-05-09T14:46:01.541Z,18.40
2023-05-09T14:48:04.037Z,18.50
2023-05-09T14:50:10.004Z,18.70
2023-05-09T14:52:13.816Z,18.80
2023-05-09T14:54:15.831Z,18.80
2023-05-09T14:56:18.864Z,18.90
2023-05-09T14:58:23.054Z,19.00
2023-05-09T15:00:26.023Z,19.10
2023-05-09T15:02:28.233Z,19.10
2023-05-09T15:04:31.157Z,19.30
2023-05-09T15:06:33.664Z,19.30
2023-05-09T15:08:37.288Z,19.20
2023-05-09T15:10:39.750Z,19.20
2023-05-09T15:12:43.249Z,19.10
2023-05-09T15:14:45.333Z,19.10
2023-05-09T15:16:47.427Z,19.00
2023-05-09T15:18:52.212Z,19.00
2023-05-09T15:20:54.495Z,19.00
2023-05-09T15:22:56.546Z,18.80
2023-05-09T15:24:59.908Z,18.70
2023-05-09T15:27:02.362Z,18.70
2023-05-09T15:29:04.347Z,18.70
2023-05-09T15:31:07.135Z,18.80
2023-05-09T15:33:09.112Z,18.80
2023-05-09T15:35:11.194Z,19.00
2023-05-09T15:37:13.422Z,19.00
2023-05-09T15:39:15.408Z,18.90
2023-05-09T15:41:19.688Z,18.90
2023-05-09T15:43:21.774Z,19.00
2023-05-09T15:45:23.690Z,18.90
2023-05-09T15:47:25.752Z,18.80
2023-05-09T15:49:27.731Z,18.70
2023-05-09T15:51:30.194Z,18.50
2023-05-09T15:53:32.253Z,18.60
2023-05-09T15:55:34.494Z,18.70
2023-05-09T15:57:37.900Z,18.80
2023-05-09T15:59:39.975Z,18.80
2023-05-09T16:01:42.018Z,18.90
2023-05-09T16:03:45.003Z,18.70
2023-05-09T16:05:47.426Z,18.60
2023-05-09T16:07:53.083Z,18.60
2023-05-09T16:09:55.049Z,18.60
2023-05-09T16:11:57.087Z,18.50
2023-05-09T16:14:00.467Z,18.40
2023-05-09T16:16:02.825Z,18.50
2023-05-09T16:18:05.361Z,18.50
2023-05-09T16:20:08.613Z,18.50
2023-05-09T16:22:10.782Z,18.50
2023-05-09T16:24:12.900Z,18.50
2023-05-09T16:26:14.800Z,18.60
2023-05-09T16:28:17.162Z,18.70
2023-05-09T16:30:20.654Z,18.80
2023-05-09T16:32:22.594Z,18.80
2023-05-09T16:34:24.871Z,18.80
2023-05-09T16:36:26.914Z,18.80
2023-05-09T16:38:28.970Z,18.70
2023-05-09T16:40:31.105Z,18.60
2023-05-09T16:42:33.108Z,18.50
2023-05-09T16:44:35.105Z,18.40
2023-05-09T16:46:38.395Z,18.30
2023-05-09T16:48:40.340Z,18.30
2023-05-09T16:50:43.426Z,18.20
2023-05-09T16:52:45.433Z,18.20
2023-05-09T16:54:49.097Z,18.10
2023-05-09T16:56:51.441Z,18.20
2023-05-09T16:58:53.346Z,18.20
2023-05-09T17:00:55.409Z,18.20
2023-05-09T17:02:59.227Z,18.30
2023-05-09T17:05:01.275Z,18.30
2023-05-09T17:07:03.384Z,18.30
2023-05-09T17:09:05.500Z,18.20
2023-05-09T17:11:08.304Z,18.20
2023-05-09T17:13:10.455Z,18.10
2023-05-09T17:15:13.869Z,18.10
2023-05-09T17:17:17.717Z,18.10
2023-05-09T17:19:23.395Z,18.10
2023-05-09T17:21:26.007Z,18.10
2023-05-09T17:23:28.044Z,18.10
2023-05-09T17:25:30.536Z,18.20
2023-05-09T17:27:32.704Z,18.20
2023-05-09T17:29:34.622Z,18.20
2023-05-09T17:31:36.737Z,18.20
2023-05-09T17:33:40.083Z,18.30
2023-05-09T17:35:43.801Z,18.20
2023-05-09T17:37:46.282Z,18.10
2023-05-09T17:39:48.274Z,18.20
2023-05-09T17:41:50.244Z,18.10
2023-05-09T17:43:56.242Z,18.10
2023-05-09T17:45:58.929Z,18.10
2023-05-09T17:48:02.099Z,18.00
2023-05-09T17:50:04.521Z,18.00
2023-05-09T17:52:08.002Z,17.90
2023-05-09T17:54:10.448Z,17.90
2023-05-09T17:56:12.423Z,17.90
2023-05-09T17:58:15.097Z,17.90
2023-05-09T18:00:18.344Z,17.90
2023-05-09T18:02:23.831Z,17.90
2023-05-09T18:04:27.293Z,17.80
2023-05-09T18:06:29.456Z,17.80
2023-05-09T18:08:32.848Z,17.80
2023-05-09T18:10:34.864Z,17.80
2023-05-09T18:12:37.341Z,17.70
2023-05-09T18:14:39.824Z,17.80
2023-05-09T18:16:42.336Z,17.80
2023-05-09T18:18:44.901Z,17.90
2023-05-09T18:20:47.369Z,17.80
2023-05-09T18:22:49.384Z,17.80
2023-05-09T18:24:52.930Z,17.80
2023-05-09T18:26:54.905Z,17.80
2023-05-09T18:28:57.790Z,17.80
2023-05-09T18:31:00.718Z,17.80
2023-05-09T18:33:03.100Z,17.80
2023-05-09T18:35:06.571Z,17.80
2023-05-09T18:37:09.129Z,17.80
2023-05-09T18:39:11.862Z,17.70
2023-05-09T18:41:15.760Z,17.70
2023-05-09T18:43:18.066Z,17.60
2023-05-09T18:45:20.139Z,17.60
2023-05-09T18:47:23.946Z,17.60
2023-05-09T18:49:26.238Z,17.60
2023-05-09T18:51:28.266Z,17.60
2023-05-09T18:53:30.932Z,17.60
2023-05-09T18:55:32.953Z,17.50
2023-05-09T18:57:36.477Z,17.50
2023-05-09T18:59:38.484Z,17.50
2023-05-09T19:01:42.418Z,17.50
2023-05-09T19:03:46.133Z,17.50
2023-05-09T19:05:48.224Z,17.50
2023-05-09T19:07:51.697Z,17.40
2023-05-09T19:09:53.992Z,17.40
2023-05-09T19:11:56.536Z,17.40
2023-05-09T19:14:00.102Z,17.40
2023-05-09T19:16:03.959Z,17.30
2023-05-09T19:18:10.252Z,17.30
2023-05-09T19:20:13.184Z,17.30
2023-05-09T19:22:15.547Z,17.30
2023-05-09T19:24:17.995Z,17.30
2023-05-09T19:26:23.890Z,17.30
2023-05-09T19:28:26.419Z,17.20
2023-05-09T19:30:29.906Z,17.20
2023-05-09T19:32:32.062Z,17.10
2023-05-09T19:34:34.289Z,17.10
2023-05-09T19:36:36.400Z,17.00
2023-05-09T19:38:38.454Z,17.00
2023-05-09T19:40:41.143Z,17.00
2023-05-09T19:42:43.248Z,17.00
2023-05-09T19:44:46.403Z,16.90
2023-05-09T19:46:49.977Z,16.90
2023-05-09T19:48:51.990Z,16.90
2023-05-09T19:50:58.596Z,16.80
2023-05-09T19:53:01.082Z,16.80
2023-05-09T19:55:03.511Z,16.80
2023-05-09T19:57:06.488Z,16.70
2023-05-09T19:59:09.141Z,16.70
2023-05-09T20:01:11.629Z,16.70
2023-05-09T20:03:15.247Z,16.70
2023-05-09T20:05:17.342Z,16.70
2023-05-09T20:07:19.751Z,16.70
2023-05-09T20:09:21.758Z,16.70
2023-05-09T20:11:23.874Z,16.60
2023-05-09T20:13:26.973Z,16.70
2023-05-09T20:15:29.142Z,16.70
2023-05-09T20:17:31.257Z,16.70
2023-05-09T20:19:34.874Z,16.70
2023-05-09T20:21:36.981Z,16.70
2023-05-09T20:23:39.639Z,16.70
2023-05-09T20:25:42.209Z,16.60
2023-05-09T20:27:44.276Z,16.60
2023-05-09T20:29:46.372Z,16.60
2023-05-09T20:31:48.443Z,16.50
2023-05-09T20:33:51.330Z,16.40
2023-05-09T20:35:54.766Z,16.40
2023-05-09T20:37:57.250Z,16.30
2023-05-09T20:40:00.478Z,16.30
2023-05-09T20:42:02.620Z,16.20
2023-05-09T20:44:22.605Z,16.20
2023-05-09T20:46:24.613Z,16.20
2023-05-09T20:48:26.793Z,16.10
2023-05-09T20:50:28.911Z,16.10
2023-05-09T20:52:32.369Z,16.00
2023-05-09T20:54:34.614Z,16.10
2023-05-09T20:56:36.689Z,16.00
2023-05-09T20:58:38.625Z,16.00
2023-05-09T21:00:40.691Z,16.00
2023-05-09T21:02:42.886Z,16.00
2023-05-09T21:04:45.029Z,16.00
2023-05-09T21:06:46.964Z,16.00
2023-05-09T21:08:51.256Z,16.00
2023-05-09T21:10:54.245Z,16.00
2023-05-09T21:12:56.409Z,15.90
2023-05-09T21:14:58.432Z,15.90
2023-05-09T21:17:00.434Z,15.90
2023-05-09T21:19:04.857Z,15.90
2023-05-09T21:21:10.346Z,15.90
2023-05-09T21:23:12.431Z,15.80
2023-05-09T21:25:17.306Z,15.80
2023-05-09T21:27:19.144Z,15.70
2023-05-09T21:29:21.208Z,15.60
2023-05-09T21:31:23.544Z,15.60
2023-05-09T21:33:25.661Z,15.60
2023-05-09T21:35:27.633Z,15.60
2023-05-09T21:37:29.926Z,15.50
2023-05-09T21:39:33.429Z,15.50
2023-05-09T21:41:37.624Z,15.40
2023-05-09T21:43:39.604Z,15.30
2023-05-09T21:45:41.548Z,15.20
2023-05-09T21:47:43.730Z,15.00
2023-05-09T21:49:45.740Z,14.90
2023-05-09T21:51:47.758Z,14.80
2023-05-09T21:53:49.751Z,14.70
2023-05-09T21:55:51.699Z,14.60
2023-05-09T21:57:55.226Z,14.50
2023-05-09T22:00:01.084Z,14.50
2023-05-09T22:02:03.067Z,14.50
2023-05-09T22:04:05.686Z,14.50
2023-05-09T22:06:07.883Z,14.50
2023-05-09T22:08:09.894Z,14.40
2023-05-09T22:10:12.105Z,14.40
2023-05-09T22:12:14.051Z,14.40
2023-05-09T22:14:18.094Z,14.50
2023-05-09T22:16:22.283Z,14.70
2023-05-09T22:18:24.351Z,14.90
2023-05-09T22:20:26.799Z,15.00
2023-05-09T22:22:29.668Z,15.20
2023-05-09T22:24:31.618Z,15.20
2023-05-09T22:26:33.779Z,15.30
2023-05-09T22:28:36.649Z,15.30
2023-05-09T22:30:39.976Z,15.30
2023-05-09T22:32:42.061Z,15.40
2023-05-09T22:34:47.290Z,15.40
2023-05-09T22:36:49.269Z,15.40
2023-05-09T22:38:51.333Z,15.40
2023-05-09T22:40:53.242Z,15.50
2023-05-09T22:42:55.378Z,15.40
2023-05-09T22:44:57.453Z,15.40
2023-05-09T22:47:00.821Z,15.40
2023-05-09T22:49:02.815Z,15.40
2023-05-09T22:51:04.931Z,15.50
2023-05-09T22:53:07.341Z,15.50
2023-05-09T22:55:09.667Z,15.50
2023-05-09T22:57:11.848Z,15.60
2023-05-09T22:59:13.935Z,15.60
2023-05-09T23:01:16.161Z,15.50
2023-05-09T23:03:19.705Z,15.60
2023-05-09T23:05:21.843Z,15.60
2023-05-09T23:07:23.851Z,15.50
2023-05-09T23:09:25.977Z,15.50
2023-05-09T23:11:28.348Z,15.60
2023-05-09T23:13:30.549Z,15.50
2023-05-09T23:15:32.903Z,15.40
2023-05-09T23:17:35.043Z,15.40
2023-05-09T23:19:38.597Z,15.40
2023-05-09T23:21:40.590Z,15.20
2023-05-09T23:23:42.672Z,15.30
2023-05-09T23:25:44.615Z,15.40
2023-05-09T23:27:47.058Z,15.40
2023-05-09T23:29:49.365Z,15.40
2023-05-09T23:31:51.460Z,15.30
2023-05-09T23:33:53.462Z,15.30
2023-05-09T23:35:57.174Z,15.40
2023-05-09T23:37:59.337Z,15.30
2023-05-09T23:40:01.747Z,15.30
2023-05-09T23:42:04.209Z,15.30
2023-05-09T23:44:07.581Z,15.30
2023-05-09T23:46:09.740Z,15.10
2023-05-09T23:48:11.847Z,15.10
2023-05-09T23:50:14.500Z,15.10
2023-05-09T23:52:18.092Z,15.20
2023-05-09T23:54:21.483Z,15.10
2023-05-09T23:56:23.537Z,15.10
2023-05-09T23:58:25.513Z,15.10
